createdAt,value
2023-01-26T00:00:34.717Z,78.00
2023-01-26T00:03:03.660Z,78.10
2023-01-26T00:05:39.114Z,78.20
2023-01-26T00:08:13.759Z,77.70
2023-01-26T00:10:51.243Z,78.20
2023-01-26T00:13:24.092Z,78.20
2023-01-26T00:15:53.077Z,78.50
2023-01-26T00:18:21.985Z,78.80
2023-01-26T00:20:56.461Z,78.40
2023-01-26T00:23:25.756Z,78.40
2023-01-26T00:25:54.784Z,78.40
2023-01-26T00:28:24.095Z,78.50
2023-01-26T00:30:53.009Z,78.20
2023-01-26T00:33:22.005Z,78.40
2023-01-26T00:35:57.389Z,78.50
2023-01-26T00:38:26.357Z,78.00
2023-01-26T00:40:55.515Z,78.50
2023-01-26T00:43:24.461Z,78.30
2023-01-26T00:45:53.544Z,78.30
2023-01-26T00:48:24.573Z,77.90
2023-01-26T00:50:54.593Z,77.90
2023-01-26T00:53:23.544Z,77.90
2023-01-26T00:55:54.519Z,78.00
2023-01-26T00:58:23.519Z,77.60
2023-01-26T01:00:54.903Z,77.30
2023-01-26T01:03:23.765Z,77.30
2023-01-26T01:05:53.974Z,76.90
2023-01-26T01:08:22.842Z,76.70
2023-01-26T01:10:51.690Z,76.40
2023-01-26T01:13:20.561Z,76.00
2023-01-26T01:15:49.438Z,75.80
2023-01-26T01:18:18.350Z,75.40
2023-01-26T01:20:47.226Z,75.20
2023-01-26T01:23:16.100Z,75.10
2023-01-26T01:25:45.073Z,74.70
2023-01-26T01:28:13.945Z,74.20
2023-01-26T01:30:42.941Z,74.00
2023-01-26T01:33:11.831Z,73.70
2023-01-26T01:35:40.694Z,73.20
2023-01-26T01:38:09.636Z,73.10
2023-01-26T01:40:43.861Z,73.00
2023-01-26T01:43:13.666Z,72.90
2023-01-26T01:45:47.973Z,74.00
2023-01-26T01:48:19.849Z,72.60
2023-01-26T01:50:50.391Z,73.50
2023-01-26T01:53:28.376Z,72.40
2023-01-26T01:56:02.437Z,71.90
2023-01-26T01:58:33.488Z,71.50
2023-01-26T02:01:02.478Z,71.30
2023-01-26T02:03:33.747Z,71.10
2023-01-26T02:06:24.099Z,70.90
2023-01-26T02:08:58.053Z,70.60
2023-01-26T02:11:38.026Z,70.00
2023-01-26T02:14:10.542Z,70.00
2023-01-26T02:16:41.152Z,69.60
2023-01-26T02:19:18.392Z,69.40
2023-01-26T02:21:49.610Z,69.30
2023-01-26T02:24:28.559Z,69.00
2023-01-26T02:26:58.415Z,68.50
2023-01-26T02:29:27.492Z,67.80
2023-01-26T02:31:57.334Z,67.70
2023-01-26T02:34:29.995Z,68.40
2023-01-26T02:37:01.198Z,67.20
2023-01-26T02:39:45.453Z,66.90
2023-01-26T02:42:33.260Z,66.70
2023-01-26T02:45:02.215Z,66.20
2023-01-26T02:47:31.171Z,66.00
2023-01-26T02:50:01.585Z,65.40
2023-01-26T02:52:34.407Z,65.60
2023-01-26T02:55:21.655Z,65.40
2023-01-26T02:57:52.170Z,65.00
2023-01-26T03:00:27.558Z,64.80
2023-01-26T03:02:59.729Z,64.50
2023-01-26T03:05:29.682Z,64.10
2023-01-26T03:07:58.554Z,64.10
2023-01-26T03:10:28.125Z,63.70
2023-01-26T03:12:57.198Z,63.10
2023-01-26T03:15:44.237Z,63.30
2023-01-26T03:18:36.871Z,63.40
2023-01-26T03:21:26.535Z,63.10
2023-01-26T03:24:13.485Z,62.80
2023-01-26T03:27:01.075Z,62.20
2023-01-26T03:29:31.345Z,61.20
2023-01-26T03:32:00.486Z,60.30
2023-01-26T03:34:30.730Z,60.60
2023-01-26T03:36:59.859Z,60.40
2023-01-26T03:39:47.088Z,60.00
2023-01-26T03:42:34.337Z,59.40
2023-01-26T03:45:21.360Z,60.60
2023-01-26T03:48:08.319Z,60.50
2023-01-26T03:50:55.555Z,60.20
2023-01-26T03:53:44.272Z,59.70
2023-01-26T03:56:19.473Z,60.80
2023-01-26T03:58:49.872Z,60.10
2023-01-26T04:01:22.216Z,60.20
2023-01-26T04:04:11.051Z,59.90
2023-01-26T04:06:59.599Z,60.00
2023-01-26T04:09:28.661Z,60.00
2023-01-26T04:11:57.638Z,59.80
2023-01-26T04:14:49.670Z,59.50
2023-01-26T04:17:38.317Z,56.80
2023-01-26T04:20:26.262Z,58.80
2023-01-26T04:22:55.193Z,58.10
2023-01-26T04:25:31.573Z,58.30
2023-01-26T04:28:00.631Z,58.00
2023-01-26T04:30:32.173Z,56.90
2023-01-26T04:33:01.115Z,57.00
2023-01-26T04:35:30.086Z,56.20
2023-01-26T04:37:59.079Z,57.70
2023-01-26T04:40:28.034Z,57.50
2023-01-26T04:43:02.594Z,57.80
2023-01-26T04:45:34.136Z,57.90
2023-01-26T04:48:03.102Z,57.20
2023-01-26T04:50:32.019Z,57.10
2023-01-26T04:53:01.056Z,56.90
2023-01-26T04:55:30.132Z,57.10
2023-01-26T04:57:59.501Z,57.10
2023-01-26T05:00:28.423Z,54.70
2023-01-26T05:02:57.348Z,54.90
2023-01-26T05:05:26.199Z,55.80
2023-01-26T05:07:55.129Z,56.80
2023-01-26T05:10:24.315Z,56.00
2023-01-26T05:12:53.219Z,56.20
2023-01-26T05:15:22.396Z,55.60
2023-01-26T05:17:51.312Z,56.10
2023-01-26T05:20:20.342Z,55.70
2023-01-26T05:22:49.302Z,56.10
2023-01-26T05:25:18.233Z,56.00
2023-01-26T05:27:47.130Z,55.30
2023-01-26T05:30:16.853Z,55.90
2023-01-26T05:32:45.943Z,55.40
2023-01-26T05:35:14.830Z,54.30
2023-01-26T05:37:43.863Z,54.50
2023-01-26T05:40:14.136Z,54.50
2023-01-26T05:42:45.147Z,54.80
2023-01-26T05:45:14.033Z,55.00
2023-01-26T05:47:45.587Z,55.20
2023-01-26T05:50:16.078Z,55.20
2023-01-26T05:52:47.724Z,55.20
2023-01-26T05:55:16.770Z,55.40
2023-01-26T05:57:45.724Z,54.90
2023-01-26T06:00:15.875Z,54.60
2023-01-26T06:02:46.303Z,53.70
2023-01-26T06:05:16.435Z,54.50
2023-01-26T06:07:45.404Z,54.70
2023-01-26T06:10:14.409Z,54.30
2023-01-26T06:12:44.158Z,54.60
2023-01-26T06:15:13.804Z,54.60
2023-01-26T06:17:43.019Z,52.70
2023-01-26T06:20:13.554Z,53.80
2023-01-26T06:22:42.707Z,53.60
2023-01-26T06:25:11.693Z,53.70
2023-01-26T06:27:43.114Z,52.30
2023-01-26T06:30:14.326Z,53.50
2023-01-26T06:32:43.148Z,54.20
2023-01-26T06:35:12.070Z,53.90
2023-01-26T06:37:43.309Z,51.90
2023-01-26T06:40:13.086Z,52.90
2023-01-26T06:42:42.184Z,53.00
2023-01-26T06:45:11.540Z,51.70
2023-01-26T06:47:40.446Z,52.20
2023-01-26T06:50:10.076Z,53.00
2023-01-26T06:52:40.379Z,52.70
2023-01-26T06:55:45.771Z,52.50
2023-01-26T06:58:14.647Z,51.70
2023-01-26T07:00:43.513Z,52.60
2023-01-26T07:03:13.060Z,52.00
2023-01-26T07:05:42.065Z,53.60
2023-01-26T07:08:13.087Z,52.90
2023-01-26T07:10:42.135Z,52.20
2023-01-26T07:13:11.089Z,50.90
2023-01-26T07:15:39.994Z,52.40
2023-01-26T07:18:09.050Z,51.80
2023-01-26T07:20:38.994Z,51.90
2023-01-26T07:23:07.878Z,52.60
2023-01-26T07:25:36.943Z,52.20
2023-01-26T07:28:06.108Z,51.60
2023-01-26T07:30:35.354Z,52.10
2023-01-26T07:33:04.556Z,52.40
2023-01-26T07:35:33.472Z,52.00
2023-01-26T07:38:07.943Z,51.90
2023-01-26T07:40:36.858Z,51.90
2023-01-26T07:43:05.743Z,51.60
2023-01-26T07:45:38.049Z,51.00
2023-01-26T07:48:07.098Z,49.50
2023-01-26T07:50:35.978Z,50.00
2023-01-26T07:53:05.171Z,50.00
2023-01-26T07:55:34.132Z,50.70
2023-01-26T07:58:07.018Z,51.00
2023-01-26T08:00:35.894Z,51.40
2023-01-26T08:03:04.758Z,51.30
2023-01-26T08:05:34.713Z,51.30
2023-01-26T08:08:03.947Z,50.50
2023-01-26T08:10:33.396Z,50.60
2023-01-26T08:13:03.076Z,51.10
2023-01-26T08:15:32.407Z,51.30
2023-01-26T08:18:05.591Z,50.60
2023-01-26T08:20:39.250Z,51.20
2023-01-26T08:23:07.693Z,50.80
2023-01-26T08:25:36.753Z,47.90
2023-01-26T08:28:05.734Z,50.60
2023-01-26T08:30:34.714Z,50.80
2023-01-26T08:33:04.137Z,50.80
2023-01-26T08:35:36.607Z,50.30
2023-01-26T08:38:05.828Z,50.40
2023-01-26T08:40:37.738Z,50.40
2023-01-26T08:43:06.666Z,49.40
2023-01-26T08:45:35.605Z,50.40
2023-01-26T08:48:04.499Z,50.30
2023-01-26T08:50:40.553Z,50.30
2023-01-26T08:53:09.998Z,49.60
2023-01-26T08:55:39.052Z,50.00
2023-01-26T08:58:08.056Z,50.30
2023-01-26T09:00:37.012Z,50.20
2023-01-26T09:03:07.537Z,50.30
2023-01-26T09:05:41.240Z,50.30
2023-01-26T09:08:10.897Z,50.30
2023-01-26T09:10:40.572Z,48.30
2023-01-26T09:13:09.559Z,50.00
2023-01-26T09:15:40.394Z,49.90
2023-01-26T09:18:09.548Z,50.40
2023-01-26T09:20:40.684Z,50.70
2023-01-26T09:23:09.960Z,50.20
2023-01-26T09:25:39.392Z,50.00
2023-01-26T09:28:08.738Z,49.90
2023-01-26T09:30:37.814Z,49.80
2023-01-26T09:33:07.991Z,49.90
2023-01-26T09:35:36.884Z,50.10
2023-01-26T09:38:05.810Z,50.00
2023-01-26T09:41:10.128Z,49.90
2023-01-26T09:43:47.222Z,50.00
2023-01-26T09:46:45.200Z,50.30
2023-01-26T09:49:36.172Z,49.90
2023-01-26T09:52:28.833Z,50.20
2023-01-26T09:55:01.680Z,49.70
2023-01-26T09:57:46.120Z,50.20
2023-01-26T10:00:26.887Z,50.10
2023-01-26T10:03:12.132Z,50.40
2023-01-26T10:05:54.846Z,50.10
2023-01-26T10:08:28.093Z,50.40
2023-01-26T10:11:05.600Z,50.60
2023-01-26T10:13:35.770Z,50.90
2023-01-26T10:16:11.686Z,50.80
2023-01-26T10:19:05.399Z,51.50
2023-01-26T10:21:39.012Z,50.70
2023-01-26T10:24:11.202Z,51.30
2023-01-26T10:26:40.144Z,51.30
2023-01-26T10:29:14.558Z,51.60
2023-01-26T10:31:43.699Z,51.60
2023-01-26T10:34:24.546Z,51.90
2023-01-26T10:37:04.001Z,52.20
2023-01-26T10:39:32.916Z,52.20
2023-01-26T10:42:05.579Z,51.80
2023-01-26T10:44:36.983Z,51.80
2023-01-26T10:47:27.080Z,51.50
2023-01-26T10:50:25.761Z,51.00
2023-01-26T10:53:03.251Z,50.90
2023-01-26T10:55:34.711Z,51.20
2023-01-26T10:58:03.719Z,51.40
2023-01-26T11:00:35.412Z,51.60
2023-01-26T11:03:20.715Z,51.60
2023-01-26T11:06:15.429Z,51.50
2023-01-26T11:08:44.452Z,51.70
2023-01-26T11:11:31.091Z,52.10
2023-01-26T11:14:20.458Z,52.20
2023-01-26T11:17:21.154Z,52.20
2023-01-26T11:20:11.837Z,52.40
2023-01-26T11:23:07.568Z,52.60
2023-01-26T11:25:52.377Z,52.80
2023-01-26T11:28:53.674Z,52.90
2023-01-26T11:31:34.004Z,53.10
2023-01-26T11:34:24.073Z,53.40
2023-01-26T11:37:25.361Z,53.60
2023-01-26T11:40:15.572Z,53.70
2023-01-26T11:43:13.273Z,54.40
2023-01-26T11:46:03.853Z,54.10
2023-01-26T11:48:53.950Z,54.10
2023-01-26T11:51:53.362Z,54.40
2023-01-26T11:54:49.571Z,54.50
2023-01-26T11:57:24.474Z,54.70
2023-01-26T12:00:07.218Z,54.70
2023-01-26T12:02:40.402Z,54.90
2023-01-26T12:05:22.245Z,55.50
2023-01-26T12:08:02.633Z,55.30
2023-01-26T12:10:59.098Z,55.30
2023-01-26T12:13:41.976Z,55.80
2023-01-26T12:16:27.487Z,56.10
2023-01-26T12:19:11.608Z,56.40
2023-01-26T12:21:45.014Z,56.40
2023-01-26T12:27:45.361Z,56.10
2023-01-26T12:30:36.562Z,56.40
2023-01-26T12:33:05.772Z,56.30
2023-01-26T12:35:58.570Z,56.10
2023-01-26T12:39:09.124Z,56.70
2023-01-26T12:42:01.168Z,56.90
2023-01-26T12:44:52.022Z,56.60
2023-01-26T12:47:33.249Z,56.90
2023-01-26T12:50:05.331Z,56.70
2023-01-26T12:52:49.464Z,56.80
2023-01-26T12:55:22.566Z,56.60
2023-01-26T12:57:54.596Z,56.50
2023-01-26T13:00:31.688Z,56.60
2023-01-26T13:03:15.904Z,56.70
2023-01-26T13:06:10.963Z,57.00
2023-01-26T13:08:39.782Z,57.10
2023-01-26T13:11:10.554Z,57.20
2023-01-26T13:13:57.193Z,57.30
2023-01-26T13:16:26.027Z,57.60
2023-01-26T13:18:59.683Z,57.50
2023-01-26T13:21:41.708Z,57.80
2023-01-26T13:24:36.747Z,58.40
2023-01-26T13:27:32.614Z,60.00
2023-01-26T13:30:02.408Z,60.90
2023-01-26T13:32:37.545Z,60.00
2023-01-26T13:35:14.926Z,60.30
2023-01-26T13:37:54.944Z,60.80
2023-01-26T13:40:26.704Z,60.80
2023-01-26T13:43:30.064Z,60.90
2023-01-26T13:46:21.457Z,62.00
2023-01-26T13:48:57.990Z,63.20
2023-01-26T13:51:35.730Z,62.00
2023-01-26T13:54:13.695Z,61.60
2023-01-26T13:56:44.588Z,62.00
2023-01-26T13:59:14.994Z,62.40
2023-01-26T14:01:53.460Z,62.60
2023-01-26T14:04:25.620Z,62.50
2023-01-26T14:07:03.598Z,62.60
2023-01-26T14:09:35.254Z,62.70
2023-01-26T14:12:06.757Z,63.00
2023-01-26T14:14:38.841Z,63.00
2023-01-26T14:17:25.857Z,63.00
2023-01-26T14:19:55.169Z,63.20
2023-01-26T14:22:24.390Z,63.60
2023-01-26T14:24:54.953Z,63.60
2023-01-26T14:27:39.098Z,63.60
2023-01-26T14:30:35.435Z,64.00
2023-01-26T14:33:14.746Z,65.00
2023-01-26T14:35:45.630Z,64.20
2023-01-26T14:38:14.523Z,64.30
2023-01-26T14:40:48.131Z,64.40
2023-01-26T14:43:17.808Z,64.20
2023-01-26T14:46:25.425Z,64.60
2023-01-26T14:49:10.733Z,65.00
2023-01-26T14:51:40.034Z,64.90
2023-01-26T14:54:19.852Z,65.30
2023-01-26T14:56:50.088Z,65.60
2023-01-26T14:59:35.213Z,65.40
2023-01-26T15:02:15.409Z,66.00
2023-01-26T15:04:49.824Z,66.00
2023-01-26T15:07:40.107Z,66.20
2023-01-26T15:10:38.373Z,67.10
2023-01-26T15:13:25.026Z,68.30
2023-01-26T15:16:09.111Z,68.70
2023-01-26T15:18:38.144Z,68.50
2023-01-26T15:21:17.257Z,68.60
2023-01-26T15:23:50.861Z,68.10
2023-01-26T15:26:33.284Z,68.20
2023-01-26T15:29:27.204Z,68.50
2023-01-26T15:31:58.392Z,68.30
2023-01-26T15:34:43.274Z,68.40
2023-01-26T15:37:37.159Z,68.70
2023-01-26T15:40:06.733Z,69.20
2023-01-26T15:42:35.652Z,68.70
2023-01-26T15:45:04.617Z,68.40
2023-01-26T15:47:33.452Z,68.90
2023-01-26T15:50:02.522Z,69.30
2023-01-26T15:52:31.848Z,69.50
2023-01-26T15:55:00.708Z,69.80
2023-01-26T15:57:31.527Z,69.70
2023-01-26T16:00:02.512Z,69.50
2023-01-26T16:02:32.521Z,69.00
2023-01-26T16:05:01.428Z,68.70
2023-01-26T16:07:30.533Z,68.80
2023-01-26T16:10:01.118Z,68.80
2023-01-26T16:12:32.033Z,68.90
2023-01-26T16:15:01.466Z,68.80
2023-01-26T16:17:30.549Z,69.00
2023-01-26T16:19:59.470Z,69.20
2023-01-26T16:22:28.400Z,69.20
2023-01-26T16:24:57.237Z,69.20
2023-01-26T16:27:26.169Z,69.20
2023-01-26T16:29:55.070Z,69.20
2023-01-26T16:32:31.007Z,69.30
2023-01-26T16:35:00.376Z,69.30
2023-01-26T16:37:31.588Z,69.50
2023-01-26T16:40:00.460Z,69.40
2023-01-26T16:42:29.330Z,69.30
2023-01-26T16:44:58.584Z,69.90
2023-01-26T16:47:27.531Z,70.00
2023-01-26T16:49:56.414Z,70.40
2023-01-26T16:52:25.319Z,70.80
2023-01-26T16:54:55.128Z,71.10
2023-01-26T16:57:24.037Z,70.90
2023-01-26T16:59:53.111Z,71.40
2023-01-26T17:02:29.142Z,70.80
2023-01-26T17:04:57.988Z,70.50
2023-01-26T17:07:26.922Z,70.60
2023-01-26T17:09:55.881Z,70.60
2023-01-26T17:12:24.953Z,70.50
2023-01-26T17:14:54.064Z,70.50
2023-01-26T17:17:22.980Z,70.30
2023-01-26T17:19:51.938Z,70.30
2023-01-26T17:22:20.913Z,70.40
2023-01-26T17:24:49.764Z,70.50
2023-01-26T17:27:18.827Z,70.60
2023-01-26T17:29:50.410Z,70.80
2023-01-26T17:32:26.428Z,70.70
2023-01-26T17:34:56.205Z,71.00
2023-01-26T17:37:28.106Z,71.10
2023-01-26T17:39:57.623Z,71.20
2023-01-26T17:42:26.784Z,71.30
2023-01-26T17:44:55.750Z,71.00
2023-01-26T17:47:25.555Z,71.20
2023-01-26T17:49:54.449Z,71.20
2023-01-26T17:52:23.331Z,71.40
2023-01-26T17:54:52.279Z,71.30
2023-01-26T17:57:21.369Z,71.40
2023-01-26T17:59:50.331Z,71.50
2023-01-26T18:02:19.365Z,71.50
2023-01-26T18:04:48.240Z,71.60
2023-01-26T18:07:17.174Z,71.60
2023-01-26T18:09:46.071Z,71.70
2023-01-26T18:12:14.948Z,71.70
2023-01-26T18:14:43.859Z,71.90
2023-01-26T18:17:12.801Z,71.90
2023-01-26T18:19:41.643Z,71.90
2023-01-26T18:22:10.526Z,72.30
2023-01-26T18:24:39.625Z,72.80
2023-01-26T18:27:08.734Z,72.90
2023-01-26T18:29:37.605Z,73.10
2023-01-26T18:32:07.314Z,73.10
2023-01-26T18:34:36.286Z,73.20
2023-01-26T18:37:05.150Z,73.70
2023-01-26T18:39:34.502Z,73.30
2023-01-26T18:42:03.364Z,73.30
2023-01-26T18:44:32.520Z,73.60
2023-01-26T18:47:01.480Z,73.60
2023-01-26T18:49:30.435Z,73.70
2023-01-26T18:51:59.341Z,73.90
2023-01-26T18:54:28.353Z,74.20
2023-01-26T18:56:58.072Z,74.90
2023-01-26T18:59:27.241Z,74.60
2023-01-26T19:01:56.485Z,74.90
2023-01-26T19:04:25.402Z,74.80
2023-01-26T19:06:54.276Z,74.80
2023-01-26T19:09:23.629Z,74.70
2023-01-26T19:11:56.570Z,75.00
2023-01-26T19:14:25.560Z,75.00
2023-01-26T19:16:55.111Z,75.00
2023-01-26T19:19:24.359Z,75.00
2023-01-26T19:21:53.231Z,74.90
2023-01-26T19:24:22.267Z,75.00
2023-01-26T19:26:51.193Z,75.10
2023-01-26T19:29:20.111Z,75.40
2023-01-26T19:31:48.992Z,75.60
2023-01-26T19:34:18.472Z,76.40
2023-01-26T19:36:47.956Z,75.30
2023-01-26T19:39:16.905Z,75.60
2023-01-26T19:41:47.382Z,75.10
2023-01-26T19:44:16.243Z,74.70
2023-01-26T19:46:45.164Z,74.60
2023-01-26T19:49:14.603Z,74.30
2023-01-26T19:51:43.518Z,74.50
2023-01-26T19:54:12.584Z,74.40
2023-01-26T19:56:41.617Z,74.50
2023-01-26T19:59:12.694Z,74.20
2023-01-26T20:01:41.731Z,74.30
2023-01-26T20:04:15.004Z,74.40
2023-01-26T20:06:43.948Z,73.90
2023-01-26T20:09:12.836Z,74.30
2023-01-26T20:11:41.784Z,74.20
2023-01-26T20:14:12.692Z,74.50
2023-01-26T20:16:41.905Z,74.20
2023-01-26T20:19:12.575Z,74.40
2023-01-26T20:21:42.139Z,74.90
2023-01-26T20:24:15.402Z,75.00
2023-01-26T20:26:45.550Z,74.60
2023-01-26T20:29:17.857Z,75.00
2023-01-26T20:31:48.101Z,74.90
2023-01-26T20:34:17.324Z,75.20
2023-01-26T20:36:46.596Z,75.60
2023-01-26T20:39:25.609Z,75.60
2023-01-26T20:41:55.158Z,75.70
2023-01-26T20:44:24.135Z,75.40
2023-01-26T20:46:53.179Z,75.00
2023-01-26T20:49:22.594Z,74.90
2023-01-26T20:51:51.568Z,74.60
2023-01-26T20:54:20.666Z,74.80
2023-01-26T20:56:51.275Z,74.80
2023-01-26T20:59:20.289Z,74.70
2023-01-26T21:01:49.246Z,74.90
2023-01-26T21:04:18.235Z,74.70
2023-01-26T21:06:47.145Z,74.80
2023-01-26T21:09:16.044Z,74.70
2023-01-26T21:11:44.963Z,74.60
2023-01-26T21:14:17.165Z,74.70
2023-01-26T21:16:46.129Z,74.70
2023-01-26T21:19:15.037Z,74.60
2023-01-26T21:21:45.452Z,74.80
2023-01-26T21:24:14.374Z,74.90
2023-01-26T21:26:43.264Z,75.00
2023-01-26T21:29:16.340Z,75.20
2023-01-26T21:31:46.942Z,75.30
2023-01-26T21:34:16.075Z,75.30
2023-01-26T21:36:44.966Z,75.40
2023-01-26T21:39:16.033Z,75.40
2023-01-26T21:41:56.719Z,75.60
2023-01-26T21:44:31.037Z,75.60
2023-01-26T21:47:01.081Z,75.80
2023-01-26T21:49:30.728Z,78.10
2023-01-26T21:52:17.894Z,76.40
2023-01-26T21:54:46.815Z,76.00
2023-01-26T21:57:34.092Z,76.30
2023-01-26T22:00:03.030Z,76.20
2023-01-26T22:02:31.917Z,76.30
2023-01-26T22:05:00.845Z,76.40
2023-01-26T22:07:33.236Z,76.10
2023-01-26T22:10:02.144Z,76.30
2023-01-26T22:12:31.470Z,76.60
2023-01-26T22:15:00.630Z,76.90
2023-01-26T22:17:29.559Z,77.00
2023-01-26T22:20:00.568Z,77.10
2023-01-26T22:22:29.518Z,77.10
2023-01-26T22:24:58.865Z,77.10
2023-01-26T22:27:27.715Z,77.30
2023-01-26T22:29:56.583Z,77.50
2023-01-26T22:32:25.606Z,78.20
2023-01-26T22:34:54.610Z,77.80
2023-01-26T22:37:25.185Z,78.10
2023-01-26T22:39:54.184Z,77.90
2023-01-26T22:42:23.569Z,77.80
2023-01-26T22:44:52.501Z,78.00
2023-01-26T22:47:21.465Z,78.00
2023-01-26T22:49:50.501Z,78.20
2023-01-26T22:52:19.373Z,78.50
2023-01-26T22:54:48.479Z,78.50
2023-01-26T22:57:17.622Z,78.80
2023-01-26T22:59:46.489Z,79.80
2023-01-26T23:02:15.583Z,79.10
2023-01-26T23:04:44.470Z,80.40
2023-01-26T23:07:13.376Z,80.80
2023-01-26T23:09:42.307Z,80.90
2023-01-26T23:12:11.286Z,80.20
2023-01-26T23:14:40.264Z,78.30
2023-01-26T23:17:09.395Z,78.00
2023-01-26T23:19:38.277Z,78.40
2023-01-26T23:22:07.286Z,79.30
2023-01-26T23:24:36.781Z,78.20
2023-01-26T23:27:05.675Z,78.20
2023-01-26T23:29:34.553Z,79.40
2023-01-26T23:32:03.478Z,77.60
2023-01-26T23:34:32.405Z,77.50
2023-01-26T23:37:01.299Z,77.20
2023-01-26T23:39:30.137Z,77.00
2023-01-26T23:41:58.974Z,76.70
2023-01-26T23:44:27.867Z,76.70
2023-01-26T23:46:56.813Z,76.50
2023-01-26T23:49:25.742Z,76.50
2023-01-26T23:51:54.659Z,76.50
2023-01-26T23:54:23.571Z,76.50
2023-01-26T23:56:52.508Z,76.60
2023-01-26T23:59:22.056Z,77.40
